sensor_id;sensor_type;location;lat;lon;timestamp;temperature;humidity
14122;DHT22;7139;48.114;11.442;2023-06-14T00:02:14;13.80;81.10
14122;DHT22;7139;48.114;11.442;2023-06-14T00:04:41;13.80;81.30
14122;DHT22;7139;48.114;11.442;2023-06-14T00:07:08;13.70;82.00
14122;DHT22;7139;48.114;11.442;2023-06-14T00:09:36;13.70;82.50
14122;DHT22;7139;48.114;11.442;2023-06-14T00:12:03;13.70;82.50
14122;DHT22;7139;48.114;11.442;2023-06-14T00:14:31;13.60;83.10
14122;DHT22;7139;48.114;11.442;2023-06-14T00:16:58;13.50;83.40
14122;DHT22;7139;48.114;11.442;2023-06-14T00:19:25;13.40;84.00
14122;DHT22;7139;48.114;11.442;2023-06-14T00:21:52;13.40;84.40
14122;DHT22;7139;48.114;11.442;2023-06-14T00:24:19;13.40;84.40
14122;DHT22;7139;48.114;11.442;2023-06-14T00:26:47;13.30;84.50
14122;DHT22;7139;48.114;11.442;2023-06-14T00:29:14;13.30;84.50
14122;DHT22;7139;48.114;11.442;2023-06-14T00:31:41;13.30;84.90
14122;DHT22;7139;48.114;11.442;2023-06-14T00:34:07;13.30;85.00
14122;DHT22;7139;48.114;11.442;2023-06-14T00:36:34;13.20;85.10
14122;DHT22;7139;48.114;11.442;2023-06-14T00:39:01;13.10;85.00
14122;DHT22;7139;48.114;11.442;2023-06-14T00:41:29;13.10;85.50
14122;DHT22;7139;48.114;11.442;2023-06-14T00:43:57;13.00;85.80
14122;DHT22;7139;48.114;11.442;2023-06-14T00:46:25;13.00;86.50
14122;DHT22;7139;48.114;11.442;2023-06-14T00:48:52;13.00;86.70
14122;DHT22;7139;48.114;11.442;2023-06-14T00:51:19;12.90;86.70
14122;DHT22;7139;48.114;11.442;2023-06-14T00:53:46;12.80;86.70
14122;DHT22;7139;48.114;11.442;2023-06-14T00:56:13;12.80;87.10
14122;DHT22;7139;48.114;11.442;2023-06-14T00:58:41;12.80;87.30
14122;DHT22;7139;48.114;11.442;2023-06-14T01:01:10;12.80;87.30
14122;DHT22;7139;48.114;11.442;2023-06-14T01:03:37;12.70;87.50
14122;DHT22;7139;48.114;11.442;2023-06-14T01:06:12;12.70;87.80
14122;DHT22;7139;48.114;11.442;2023-06-14T01:08:47;12.60;88.30
14122;DHT22;7139;48.114;11.442;2023-06-14T01:11:18;12.60;88.60
14122;DHT22;7139;48.114;11.442;2023-06-14T01:13:49;12.60;88.50
14122;DHT22;7139;48.114;11.442;2023-06-14T01:16:18;12.60;88.50
14122;DHT22;7139;48.114;11.442;2023-06-14T01:18:45;12.50;88.60
14122;DHT22;7139;48.114;11.442;2023-06-14T01:21:20;12.50;88.60
14122;DHT22;7139;48.114;11.442;2023-06-14T01:23:49;12.40;88.60
14122;DHT22;7139;48.114;11.442;2023-06-14T01:26:18;12.40;88.70
14122;DHT22;7139;48.114;11.442;2023-06-14T01:28:45;12.40;88.90
14122;DHT22;7139;48.114;11.442;2023-06-14T01:31:16;12.40;89.10
14122;DHT22;7139;48.114;11.442;2023-06-14T01:33:44;12.30;89.20
14122;DHT22;7139;48.114;11.442;2023-06-14T01:36:12;12.30;89.40
14122;DHT22;7139;48.114;11.442;2023-06-14T01:38:40;12.20;89.50
14122;DHT22;7139;48.114;11.442;2023-06-14T01:41:10;12.20;90.00
14122;DHT22;7139;48.114;11.442;2023-06-14T01:43:38;12.20;90.00
14122;DHT22;7139;48.114;11.442;2023-06-14T01:46:06;12.20;90.00
14122;DHT22;7139;48.114;11.442;2023-06-14T01:48:34;12.20;90.00
14122;DHT22;7139;48.114;11.442;2023-06-14T01:51:01;12.20;90.10
14122;DHT22;7139;48.114;11.442;2023-06-14T01:53:28;12.20;90.10
14122;DHT22;7139;48.114;11.442;2023-06-14T01:55:54;12.10;90.00
14122;DHT22;7139;48.114;11.442;2023-06-14T01:58:23;12.10;90.00
14122;DHT22;7139;48.114;11.442;2023-06-14T02:00:50;12.10;90.00
14122;DHT22;7139;48.114;11.442;2023-06-14T02:03:20;12.00;89.80
14122;DHT22;7139;48.114;11.442;2023-06-14T02:05:48;12.00;89.80
14122;DHT22;7139;48.114;11.442;2023-06-14T02:08:15;12.00;89.80
14122;DHT22;7139;48.114;11.442;2023-06-14T02:10:42;11.90;89.60
14122;DHT22;7139;48.114;11.442;2023-06-14T02:13:09;11.90;90.00
14122;DHT22;7139;48.114;11.442;2023-06-14T02:15:37;11.90;89.90
14122;DHT22;7139;48.114;11.442;2023-06-14T02:18:04;11.80;90.00
14122;DHT22;7139;48.114;11.442;2023-06-14T02:20:31;11.80;90.20
14122;DHT22;7139;48.114;11.442;2023-06-14T02:22:57;11.70;90.30
14122;DHT22;7139;48.114;11.442;2023-06-14T02:25:24;11.70;90.30
14122;DHT22;7139;48.114;11.442;2023-06-14T02:27:53;11.70;90.40
14122;DHT22;7139;48.114;11.442;2023-06-14T02:30:20;11.60;90.40
14122;DHT22;7139;48.114;11.442;2023-06-14T02:32:48;11.60;90.50
14122;DHT22;7139;48.114;11.442;2023-06-14T02:35:16;11.60;90.70
14122;DHT22;7139;48.114;11.442;2023-06-14T02:37:43;11.60;90.70
14122;DHT22;7139;48.114;11.442;2023-06-14T02:40:10;11.50;90.70
14122;DHT22;7139;48.114;11.442;2023-06-14T02:42:37;11.50;90.70
14122;DHT22;7139;48.114;11.442;2023-06-14T02:45:05;11.50;90.80
14122;DHT22;7139;48.114;11.442;2023-06-14T02:47:32;11.40;90.80
14122;DHT22;7139;48.114;11.442;2023-06-14T02:50:00;11.40;90.70
14122;DHT22;7139;48.114;11.442;2023-06-14T02:52:28;11.40;90.80
14122;DHT22;7139;48.114;11.442;2023-06-14T02:54:54;11.40;90.70
14122;DHT22;7139;48.114;11.442;2023-06-14T02:57:22;11.30;90.80
14122;DHT22;7139;48.114;11.442;2023-06-14T02:59:49;11.20;90.80
14122;DHT22;7139;48.114;11.442;2023-06-14T03:02:17;11.20;90.70
14122;DHT22;7139;48.114;11.442;2023-06-14T03:04:43;11.20;90.90
14122;DHT22;7139;48.114;11.442;2023-06-14T03:07:13;11.20;91.70
14122;DHT22;7139;48.114;11.442;2023-06-14T03:09:45;11.20;91.80
14122;DHT22;7139;48.114;11.442;2023-06-14T03:12:12;11.20;91.70
14122;DHT22;7139;48.114;11.442;2023-06-14T03:14:40;11.20;91.60
14122;DHT22;7139;48.114;11.442;2023-06-14T03:17:07;11.10;91.70
14122;DHT22;7139;48.114;11.442;2023-06-14T03:19:35;11.00;91.50
14122;DHT22;7139;48.114;11.442;2023-06-14T03:22:02;11.00;91.70
14122;DHT22;7139;48.114;11.442;2023-06-14T03:24:31;11.00;91.70
14122;DHT22;7139;48.114;11.442;2023-06-14T03:27:02;10.90;91.60
14122;DHT22;7139;48.114;11.442;2023-06-14T03:29:28;10.90;91.80
14122;DHT22;7139;48.114;11.442;2023-06-14T03:31:59;10.80;91.90
14122;DHT22;7139;48.114;11.442;2023-06-14T03:34:26;10.70;91.80
14122;DHT22;7139;48.114;11.442;2023-06-14T03:36:53;10.80;91.90
14122;DHT22;7139;48.114;11.442;2023-06-14T03:39:20;10.70;92.00
14122;DHT22;7139;48.114;11.442;2023-06-14T03:41:49;10.70;92.00
14122;DHT22;7139;48.114;11.442;2023-06-14T03:44:16;10.60;92.10
14122;DHT22;7139;48.114;11.442;2023-06-14T03:46:43;10.70;92.10
14122;DHT22;7139;48.114;11.442;2023-06-14T03:49:11;10.60;92.20
14122;DHT22;7139;48.114;11.442;2023-06-14T03:51:38;10.70;92.40
14122;DHT22;7139;48.114;11.442;2023-06-14T03:54:05;10.70;92.70
14122;DHT22;7139;48.114;11.442;2023-06-14T03:56:32;10.70;92.40
14122;DHT22;7139;48.114;11.442;2023-06-14T03:59:00;10.60;92.40
14122;DHT22;7139;48.114;11.442;2023-06-14T04:01:26;10.70;92.50
14122;DHT22;7139;48.114;11.442;2023-06-14T04:03:55;10.70;92.70
14122;DHT22;7139;48.114;11.442;2023-06-14T04:06:22;10.70;92.60
14122;DHT22;7139;48.114;11.442;2023-06-14T04:08:50;10.70;92.60
14122;DHT22;7139;48.114;11.442;2023-06-14T04:11:17;10.70;92.70
14122;DHT22;7139;48.114;11.442;2023-06-14T04:13:45;10.70;92.70
14122;DHT22;7139;48.114;11.442;2023-06-14T04:16:13;10.70;92.70
14122;DHT22;7139;48.114;11.442;2023-06-14T04:18:40;10.80;92.90
14122;DHT22;7139;48.114;11.442;2023-06-14T04:21:07;10.80;92.80
14122;DHT22;7139;48.114;11.442;2023-06-14T04:23:34;10.80;92.80
14122;DHT22;7139;48.114;11.442;2023-06-14T04:26:00;10.80;92.70
14122;DHT22;7139;48.114;11.442;2023-06-14T04:28:28;10.80;92.70
14122;DHT22;7139;48.114;11.442;2023-06-14T04:30:55;10.80;92.70
14122;DHT22;7139;48.114;11.442;2023-06-14T04:33:23;10.80;92.60
14122;DHT22;7139;48.114;11.442;2023-06-14T04:35:51;10.80;92.60
14122;DHT22;7139;48.114;11.442;2023-06-14T04:38:19;10.90;92.70
14122;DHT22;7139;48.114;11.442;2023-06-14T04:40:50;10.90;92.70
14122;DHT22;7139;48.114;11.442;2023-06-14T04:43:18;10.90;92.60
14122;DHT22;7139;48.114;11.442;2023-06-14T04:45:50;10.90;92.60
14122;DHT22;7139;48.114;11.442;2023-06-14T04:48:17;11.00;92.40
14122;DHT22;7139;48.114;11.442;2023-06-14T04:50:46;11.00;92.50
14122;DHT22;7139;48.114;11.442;2023-06-14T04:53:13;11.10;92.70
14122;DHT22;7139;48.114;11.442;2023-06-14T04:55:39;11.10;92.80
14122;DHT22;7139;48.114;11.442;2023-06-14T04:58:10;11.20;92.90
14122;DHT22;7139;48.114;11.442;2023-06-14T05:00:38;11.10;92.90
14122;DHT22;7139;48.114;11.442;2023-06-14T05:03:05;11.20;92.90
14122;DHT22;7139;48.114;11.442;2023-06-14T05:05:33;11.30;92.90
14122;DHT22;7139;48.114;11.442;2023-06-14T05:08:01;11.30;93.10
14122;DHT22;7139;48.114;11.442;2023-06-14T05:10:28;11.40;93.20
14122;DHT22;7139;48.114;11.442;2023-06-14T05:12:54;11.50;93.40
14122;DHT22;7139;48.114;11.442;2023-06-14T05:15:21;11.60;93.50
14122;DHT22;7139;48.114;11.442;2023-06-14T05:17:50;11.60;93.60
14122;DHT22;7139;48.114;11.442;2023-06-14T05:20:20;11.70;93.80
14122;DHT22;7139;48.114;11.442;2023-06-14T05:22:48;11.80;93.70
14122;DHT22;7139;48.114;11.442;2023-06-14T05:25:18;11.80;93.80
14122;DHT22;7139;48.114;11.442;2023-06-14T05:27:45;11.90;93.70
14122;DHT22;7139;48.114;11.442;2023-06-14T05:30:13;11.90;93.70
14122;DHT22;7139;48.114;11.442;2023-06-14T05:32:40;12.00;94.00
14122;DHT22;7139;48.114;11.442;2023-06-14T05:35:08;12.10;94.20
14122;DHT22;7139;48.114;11.442;2023-06-14T05:37:34;12.20;94.20
14122;DHT22;7139;48.114;11.442;2023-06-14T05:40:01;12.30;94.20
14122;DHT22;7139;48.114;11.442;2023-06-14T05:42:32;12.40;93.90
14122;DHT22;7139;48.114;11.442;2023-06-14T05:44:58;12.50;93.60
14122;DHT22;7139;48.114;11.442;2023-06-14T05:47:26;12.60;93.50
14122;DHT22;7139;48.114;11.442;2023-06-14T05:49:53;12.70;93.50
14122;DHT22;7139;48.114;11.442;2023-06-14T05:52:19;12.80;93.40
14122;DHT22;7139;48.114;11.442;2023-06-14T05:54:47;12.90;93.40
14122;DHT22;7139;48.114;11.442;2023-06-14T05:57:13;13.00;93.20
14122;DHT22;7139;48.114;11.442;2023-06-14T05:59:41;13.00;92.70
14122;DHT22;7139;48.114;11.442;2023-06-14T06:02:08;13.20;92.70
14122;DHT22;7139;48.114;11.442;2023-06-14T06:04:35;13.30;92.80
14122;DHT22;7139;48.114;11.442;2023-06-14T06:07:02;13.40;92.50
14122;DHT22;7139;48.114;11.442;2023-06-14T06:09:29;13.50;92.20
14122;DHT22;7139;48.114;11.442;2023-06-14T06:11:56;13.60;91.80
14122;DHT22;7139;48.114;11.442;2023-06-14T06:14:22;13.80;91.70
14122;DHT22;7139;48.114;11.442;2023-06-14T06:16:50;13.90;91.70
14122;DHT22;7139;48.114;11.442;2023-06-14T06:19:18;14.00;91.10
14122;DHT22;7139;48.114;11.442;2023-06-14T06:21:45;14.10;91.20
14122;DHT22;7139;48.114;11.442;2023-06-14T06:24:12;14.20;91.00
14122;DHT22;7139;48.114;11.442;2023-06-14T06:26:38;14.30;90.70
14122;DHT22;7139;48.114;11.442;2023-06-14T06:29:06;14.40;89.90
14122;DHT22;7139;48.114;11.442;2023-06-14T06:31:33;14.50;88.50
14122;DHT22;7139;48.114;11.442;2023-06-14T06:34:01;14.50;89.10
14122;DHT22;7139;48.114;11.442;2023-06-14T06:36:28;14.60;88.90
14122;DHT22;7139;48.114;11.442;2023-06-14T06:38:55;14.70;88.80
14122;DHT22;7139;48.114;11.442;2023-06-14T06:41:21;14.80;87.10
14122;DHT22;7139;48.114;11.442;2023-06-14T06:43:48;15.00;87.20
14122;DHT22;7139;48.114;11.442;2023-06-14T06:46:15;15.10;86.50
14122;DHT22;7139;48.114;11.442;2023-06-14T06:48:43;15.20;84.00
14122;DHT22;7139;48.114;11.442;2023-06-14T06:51:11;15.30;83.80
14122;DHT22;7139;48.114;11.442;2023-06-14T06:53:39;15.40;83.40
14122;DHT22;7139;48.114;11.442;2023-06-14T06:56:06;15.60;82.80
14122;DHT22;7139;48.114;11.442;2023-06-14T06:58:32;15.70;82.40
14122;DHT22;7139;48.114;11.442;2023-06-14T07:00:59;15.80;81.80
14122;DHT22;7139;48.114;11.442;2023-06-14T07:03:26;15.90;83.20
14122;DHT22;7139;48.114;11.442;2023-06-14T07:05:53;16.10;82.00
14122;DHT22;7139;48.114;11.442;2023-06-14T07:08:21;16.20;81.70
14122;DHT22;7139;48.114;11.442;2023-06-14T07:10:48;16.40;81.50
14122;DHT22;7139;48.114;11.442;2023-06-14T07:13:15;16.50;82.40
14122;DHT22;7139;48.114;11.442;2023-06-14T07:15:42;16.70;81.10
14122;DHT22;7139;48.114;11.442;2023-06-14T07:18:08;16.80;79.70
14122;DHT22;7139;48.114;11.442;2023-06-14T07:20:35;17.00;80.00
14122;DHT22;7139;48.114;11.442;2023-06-14T07:23:04;17.10;78.30
14122;DHT22;7139;48.114;11.442;2023-06-14T07:25:32;17.30;78.20
14122;DHT22;7139;48.114;11.442;2023-06-14T07:27:59;17.40;77.30
14122;DHT22;7139;48.114;11.442;2023-06-14T07:30:25;17.60;77.80
14122;DHT22;7139;48.114;11.442;2023-06-14T07:32:52;17.70;79.10
14122;DHT22;7139;48.114;11.442;2023-06-14T07:35:20;17.90;76.30
14122;DHT22;7139;48.114;11.442;2023-06-14T07:37:46;18.00;73.70
14122;DHT22;7139;48.114;11.442;2023-06-14T07:40:13;18.10;73.30
14122;DHT22;7139;48.114;11.442;2023-06-14T07:42:41;18.20;73.30
14122;DHT22;7139;48.114;11.442;2023-06-14T07:45:09;18.40;73.50
14122;DHT22;7139;48.114;11.442;2023-06-14T07:47:36;18.50;74.60
14122;DHT22;7139;48.114;11.442;2023-06-14T07:50:03;18.70;73.70
14122;DHT22;7139;48.114;11.442;2023-06-14T07:52:30;18.80;73.40
14122;DHT22;7139;48.114;11.442;2023-06-14T07:54:57;19.00;72.30
14122;DHT22;7139;48.114;11.442;2023-06-14T07:57:24;19.10;72.30
14122;DHT22;7139;48.114;11.442;2023-06-14T07:59:52;19.30;72.00
14122;DHT22;7139;48.114;11.442;2023-06-14T08:02:19;19.50;71.90
14122;DHT22;7139;48.114;11.442;2023-06-14T08:04:46;19.60;72.30
14122;DHT22;7139;48.114;11.442;2023-06-14T08:07:13;19.80;73.30
14122;DHT22;7139;48.114;11.442;2023-06-14T08:09:40;19.90;70.60
14122;DHT22;7139;48.114;11.442;2023-06-14T08:12:08;20.10;70.30
14122;DHT22;7139;48.114;11.442;2023-06-14T08:14:36;20.20;67.60
14122;DHT22;7139;48.114;11.442;2023-06-14T08:17:04;20.40;67.90
14122;DHT22;7139;48.114;11.442;2023-06-14T08:19:31;20.40;65.30
14122;DHT22;7139;48.114;11.442;2023-06-14T08:21:58;20.50;62.30
14122;DHT22;7139;48.114;11.442;2023-06-14T08:24:25;20.60;63.20
14122;DHT22;7139;48.114;11.442;2023-06-14T08:26:52;20.70;64.70
14122;DHT22;7139;48.114;11.442;2023-06-14T08:29:19;20.80;64.10
14122;DHT22;7139;48.114;11.442;2023-06-14T08:31:47;20.90;63.90
14122;DHT22;7139;48.114;11.442;2023-06-14T08:34:15;21.10;63.10
14122;DHT22;7139;48.114;11.442;2023-06-14T08:36:41;21.20;63.20
14122;DHT22;7139;48.114;11.442;2023-06-14T08:39:08;21.30;63.40
14122;DHT22;7139;48.114;11.442;2023-06-14T08:41:35;21.50;63.80
14122;DHT22;7139;48.114;11.442;2023-06-14T08:44:02;21.60;62.80
14122;DHT22;7139;48.114;11.442;2023-06-14T08:46:32;21.70;64.60
14122;DHT22;7139;48.114;11.442;2023-06-14T08:49:01;21.90;60.70
14122;DHT22;7139;48.114;11.442;2023-06-14T08:51:31;22.00;60.80
14122;DHT22;7139;48.114;11.442;2023-06-14T08:54:00;22.10;62.10
14122;DHT22;7139;48.114;11.442;2023-06-14T08:56:28;22.20;59.10
14122;DHT22;7139;48.114;11.442;2023-06-14T08:58:55;22.30;58.60
14122;DHT22;7139;48.114;11.442;2023-06-14T09:01:23;22.40;58.10
14122;DHT22;7139;48.114;11.442;2023-06-14T09:03:50;22.30;59.00
14122;DHT22;7139;48.114;11.442;2023-06-14T09:06:17;22.40;59.30
14122;DHT22;7139;48.114;11.442;2023-06-14T09:08:46;22.60;60.00
14122;DHT22;7139;48.114;11.442;2023-06-14T09:11:15;22.70;58.60
14122;DHT22;7139;48.114;11.442;2023-06-14T09:13:44;22.80;58.10
14122;DHT22;7139;48.114;11.442;2023-06-14T09:16:11;23.00;57.50
14122;DHT22;7139;48.114;11.442;2023-06-14T09:18:40;23.10;58.00
14122;DHT22;7139;48.114;11.442;2023-06-14T09:21:09;23.10;56.40
14122;DHT22;7139;48.114;11.442;2023-06-14T09:23:37;23.20;55.60
14122;DHT22;7139;48.114;11.442;2023-06-14T09:26:09;23.10;56.00
14122;DHT22;7139;48.114;11.442;2023-06-14T09:28:36;23.20;57.20
14122;DHT22;7139;48.114;11.442;2023-06-14T09:31:03;23.40;57.20
14122;DHT22;7139;48.114;11.442;2023-06-14T09:33:31;23.50;55.30
14122;DHT22;7139;48.114;11.442;2023-06-14T09:35:58;23.50;58.10
14122;DHT22;7139;48.114;11.442;2023-06-14T09:38:25;23.60;54.60
14122;DHT22;7139;48.114;11.442;2023-06-14T09:40:52;23.60;55.90
14122;DHT22;7139;48.114;11.442;2023-06-14T09:43:21;23.50;55.80
14122;DHT22;7139;48.114;11.442;2023-06-14T09:45:48;23.20;56.40
14122;DHT22;7139;48.114;11.442;2023-06-14T09:48:15;23.30;57.10
14122;DHT22;7139;48.114;11.442;2023-06-14T09:50:45;23.40;57.10
14122;DHT22;7139;48.114;11.442;2023-06-14T09:53:13;23.60;58.60
14122;DHT22;7139;48.114;11.442;2023-06-14T09:55:41;24.00;56.90
14122;DHT22;7139;48.114;11.442;2023-06-14T09:58:10;24.20;55.70
14122;DHT22;7139;48.114;11.442;2023-06-14T10:00:39;24.00;56.80
14122;DHT22;7139;48.114;11.442;2023-06-14T10:03:12;23.70;55.50
14122;DHT22;7139;48.114;11.442;2023-06-14T10:05:41;23.70;56.90
14122;DHT22;7139;48.114;11.442;2023-06-14T10:08:08;23.60;56.40
14122;DHT22;7139;48.114;11.442;2023-06-14T10:10:36;23.50;56.20
14122;DHT22;7139;48.114;11.442;2023-06-14T10:13:05;23.40;57.60
14122;DHT22;7139;48.114;11.442;2023-06-14T10:15:37;23.20;58.50
14122;DHT22;7139;48.114;11.442;2023-06-14T10:18:11;23.00;58.70
14122;DHT22;7139;48.114;11.442;2023-06-14T10:20:52;22.80;58.20
14122;DHT22;7139;48.114;11.442;2023-06-14T10:23:23;22.60;59.10
14122;DHT22;7139;48.114;11.442;2023-06-14T10:25:54;22.40;58.70
14122;DHT22;7139;48.114;11.442;2023-06-14T10:28:21;22.30;59.60
14122;DHT22;7139;48.114;11.442;2023-06-14T10:31:07;22.20;61.20
14122;DHT22;7139;48.114;11.442;2023-06-14T10:33:36;22.30;63.10
14122;DHT22;7139;48.114;11.442;2023-06-14T10:36:10;22.60;62.50
14122;DHT22;7139;48.114;11.442;2023-06-14T10:38:37;23.00;61.70
14122;DHT22;7139;48.114;11.442;2023-06-14T10:41:05;23.20;58.70
14122;DHT22;7139;48.114;11.442;2023-06-14T10:43:33;23.20;58.90
14122;DHT22;7139;48.114;11.442;2023-06-14T10:46:16;23.20;58.80
14122;DHT22;7139;48.114;11.442;2023-06-14T10:48:44;23.00;58.20
14122;DHT22;7139;48.114;11.442;2023-06-14T10:51:16;22.90;57.80
14122;DHT22;7139;48.114;11.442;2023-06-14T10:53:45;22.70;58.90
14122;DHT22;7139;48.114;11.442;2023-06-14T10:56:23;22.70;59.70
14122;DHT22;7139;48.114;11.442;2023-06-14T10:58:51;23.00;61.00
14122;DHT22;7139;48.114;11.442;2023-06-14T11:01:28;23.30;59.40
14122;DHT22;7139;48.114;11.442;2023-06-14T11:04:07;23.30;58.90
14122;DHT22;7139;48.114;11.442;2023-06-14T11:06:47;23.40;59.10
14122;DHT22;7139;48.114;11.442;2023-06-14T11:09:49;23.70;59.10
14122;DHT22;7139;48.114;11.442;2023-06-14T11:12:21;24.00;57.40
14122;DHT22;7139;48.114;11.442;2023-06-14T11:14:48;24.20;58.10
14122;DHT22;7139;48.114;11.442;2023-06-14T11:17:15;24.40;56.50
14122;DHT22;7139;48.114;11.442;2023-06-14T11:19:44;24.70;57.40
14122;DHT22;7139;48.114;11.442;2023-06-14T11:22:10;24.90;57.90
14122;DHT22;7139;48.114;11.442;2023-06-14T11:24:40;25.10;56.70
14122;DHT22;7139;48.114;11.442;2023-06-14T11:27:06;25.20;54.90
14122;DHT22;7139;48.114;11.442;2023-06-14T11:29:34;25.10;54.80
14122;DHT22;7139;48.114;11.442;2023-06-14T11:32:01;25.10;56.20
14122;DHT22;7139;48.114;11.442;2023-06-14T11:34:27;25.00;54.20
14122;DHT22;7139;48.114;11.442;2023-06-14T11:36:55;24.80;55.40
14122;DHT22;7139;48.114;11.442;2023-06-14T11:39:24;25.10;55.80
14122;DHT22;7139;48.114;11.442;2023-06-14T11:41:52;25.30;54.80
14122;DHT22;7139;48.114;11.442;2023-06-14T11:44:20;25.50;55.20
14122;DHT22;7139;48.114;11.442;2023-06-14T11:46:47;25.70;54.20
14122;DHT22;7139;48.114;11.442;2023-06-14T11:49:16;25.80;52.50
14122;DHT22;7139;48.114;11.442;2023-06-14T11:51:42;25.80;51.70
14122;DHT22;7139;48.114;11.442;2023-06-14T11:54:12;25.70;52.80
14122;DHT22;7139;48.114;11.442;2023-06-14T11:56:39;25.80;52.90
14122;DHT22;7139;48.114;11.442;2023-06-14T11:59:05;26.10;52.40
14122;DHT22;7139;48.114;11.442;2023-06-14T12:01:35;26.20;53.40
14122;DHT22;7139;48.114;11.442;2023-06-14T12:04:02;26.20;52.80
14122;DHT22;7139;48.114;11.442;2023-06-14T12:06:30;26.30;51.60
14122;DHT22;7139;48.114;11.442;2023-06-14T12:09:03;26.30;51.30
14122;DHT22;7139;48.114;11.442;2023-06-14T12:11:34;26.20;50.00
14122;DHT22;7139;48.114;11.442;2023-06-14T12:14:03;26.00;48.60
14122;DHT22;7139;48.114;11.442;2023-06-14T12:16:31;26.00;49.20
14122;DHT22;7139;48.114;11.442;2023-06-14T12:19:00;25.80;49.70
14122;DHT22;7139;48.114;11.442;2023-06-14T12:21:27;25.40;50.70
14122;DHT22;7139;48.114;11.442;2023-06-14T12:23:54;25.10;50.50
14122;DHT22;7139;48.114;11.442;2023-06-14T12:26:21;24.80;51.40
14122;DHT22;7139;48.114;11.442;2023-06-14T12:28:52;24.60;53.20
14122;DHT22;7139;48.114;11.442;2023-06-14T12:31:19;24.40;52.30
14122;DHT22;7139;48.114;11.442;2023-06-14T12:33:46;24.20;51.80
14122;DHT22;7139;48.114;11.442;2023-06-14T12:36:14;24.10;51.40
14122;DHT22;7139;48.114;11.442;2023-06-14T12:38:42;24.20;52.80
14122;DHT22;7139;48.114;11.442;2023-06-14T12:41:09;24.50;53.20
14122;DHT22;7139;48.114;11.442;2023-06-14T12:43:35;24.60;50.20
14122;DHT22;7139;48.114;11.442;2023-06-14T12:46:03;24.80;53.90
14122;DHT22;7139;48.114;11.442;2023-06-14T12:48:30;25.10;53.70
14122;DHT22;7139;48.114;11.442;2023-06-14T12:50:57;25.40;52.60
14122;DHT22;7139;48.114;11.442;2023-06-14T12:53:24;25.70;52.80
14122;DHT22;7139;48.114;11.442;2023-06-14T12:55:51;26.00;50.30
14122;DHT22;7139;48.114;11.442;2023-06-14T12:58:17;26.10;49.40
14122;DHT22;7139;48.114;11.442;2023-06-14T13:00:45;26.20;47.90
14122;DHT22;7139;48.114;11.442;2023-06-14T13:03:13;26.20;48.20
14122;DHT22;7139;48.114;11.442;2023-06-14T13:05:40;26.00;48.30
14122;DHT22;7139;48.114;11.442;2023-06-14T13:08:08;25.70;50.00
14122;DHT22;7139;48.114;11.442;2023-06-14T13:10:35;25.30;50.30
14122;DHT22;7139;48.114;11.442;2023-06-14T13:13:02;25.10;50.40
14122;DHT22;7139;48.114;11.442;2023-06-14T13:15:29;24.80;50.90
14122;DHT22;7139;48.114;11.442;2023-06-14T13:17:56;24.50;49.80
14122;DHT22;7139;48.114;11.442;2023-06-14T13:20:24;24.40;52.70
14122;DHT22;7139;48.114;11.442;2023-06-14T13:22:51;24.50;52.70
14122;DHT22;7139;48.114;11.442;2023-06-14T13:25:18;24.70;51.40
14122;DHT22;7139;48.114;11.442;2023-06-14T13:27:45;25.00;52.50
14122;DHT22;7139;48.114;11.442;2023-06-14T13:30:12;25.20;52.80
14122;DHT22;7139;48.114;11.442;2023-06-14T13:32:39;25.40;50.50
14122;DHT22;7139;48.114;11.442;2023-06-14T13:35:06;25.40;49.90
14122;DHT22;7139;48.114;11.442;2023-06-14T13:37:34;25.60;50.50
14122;DHT22;7139;48.114;11.442;2023-06-14T13:40:01;25.60;51.00
14122;DHT22;7139;48.114;11.442;2023-06-14T13:42:28;25.60;49.80
14122;DHT22;7139;48.114;11.442;2023-06-14T13:44:57;25.60;51.80
14122;DHT22;7139;48.114;11.442;2023-06-14T13:47:23;25.80;51.80
14122;DHT22;7139;48.114;11.442;2023-06-14T13:49:50;26.00;52.20
14122;DHT22;7139;48.114;11.442;2023-06-14T13:52:17;26.10;51.30
14122;DHT22;7139;48.114;11.442;2023-06-14T13:54:45;26.10;51.00
14122;DHT22;7139;48.114;11.442;2023-06-14T13:57:12;26.00;49.10
14122;DHT22;7139;48.114;11.442;2023-06-14T13:59:39;25.90;49.20
14122;DHT22;7139;48.114;11.442;2023-06-14T14:02:06;25.90;49.90
14122;DHT22;7139;48.114;11.442;2023-06-14T14:04:33;25.80;51.10
14122;DHT22;7139;48.114;11.442;2023-06-14T14:07:01;25.60;49.50
14122;DHT22;7139;48.114;11.442;2023-06-14T14:09:27;25.50;49.30
14122;DHT22;7139;48.114;11.442;2023-06-14T14:11:56;25.40;50.30
14122;DHT22;7139;48.114;11.442;2023-06-14T14:14:22;25.30;49.70
14122;DHT22;7139;48.114;11.442;2023-06-14T14:16:50;25.40;52.20
14122;DHT22;7139;48.114;11.442;2023-06-14T14:19:19;25.50;49.60
14122;DHT22;7139;48.114;11.442;2023-06-14T14:21:45;25.30;48.30
14122;DHT22;7139;48.114;11.442;2023-06-14T14:24:12;25.30;48.40
14122;DHT22;7139;48.114;11.442;2023-06-14T14:26:39;25.40;49.70
14122;DHT22;7139;48.114;11.442;2023-06-14T14:29:07;25.50;50.10
14122;DHT22;7139;48.114;11.442;2023-06-14T14:31:37;25.70;50.80
14122;DHT22;7139;48.114;11.442;2023-06-14T14:34:03;25.80;48.30
14122;DHT22;7139;48.114;11.442;2023-06-14T14:36:30;25.80;48.30
14122;DHT22;7139;48.114;11.442;2023-06-14T14:38:58;25.80;47.50
14122;DHT22;7139;48.114;11.442;2023-06-14T14:41:27;25.70;49.00
14122;DHT22;7139;48.114;11.442;2023-06-14T14:43:54;25.70;50.10
14122;DHT22;7139;48.114;11.442;2023-06-14T14:46:22;25.80;51.80
14122;DHT22;7139;48.114;11.442;2023-06-14T14:48:49;25.70;50.10
14122;DHT22;7139;48.114;11.442;2023-06-14T14:51:15;25.50;50.30
14122;DHT22;7139;48.114;11.442;2023-06-14T14:53:42;25.20;50.30
14122;DHT22;7139;48.114;11.442;2023-06-14T14:56:09;25.00;50.30
14122;DHT22;7139;48.114;11.442;2023-06-14T14:58:37;24.80;50.30
14122;DHT22;7139;48.114;11.442;2023-06-14T15:01:04;24.70;52.90
14122;DHT22;7139;48.114;11.442;2023-06-14T15:03:32;24.70;51.80
14122;DHT22;7139;48.114;11.442;2023-06-14T15:05:59;24.80;50.70
14122;DHT22;7139;48.114;11.442;2023-06-14T15:08:26;24.90;52.30
14122;DHT22;7139;48.114;11.442;2023-06-14T15:10:52;24.90;51.40
14122;DHT22;7139;48.114;11.442;2023-06-14T15:13:19;25.00;53.20
14122;DHT22;7139;48.114;11.442;2023-06-14T15:15:46;25.10;51.80
14122;DHT22;7139;48.114;11.442;2023-06-14T15:18:13;25.20;52.20
14122;DHT22;7139;48.114;11.442;2023-06-14T15:20:42;25.20;50.80
14122;DHT22;7139;48.114;11.442;2023-06-14T15:23:09;25.20;49.90
14122;DHT22;7139;48.114;11.442;2023-06-14T15:25:36;25.10;52.10
14122;DHT22;7139;48.114;11.442;2023-06-14T15:28:02;24.90;52.00
14122;DHT22;7139;48.114;11.442;2023-06-14T15:30:32;24.80;53.00
14122;DHT22;7139;48.114;11.442;2023-06-14T15:32:58;24.60;53.60
14122;DHT22;7139;48.114;11.442;2023-06-14T15:35:25;24.50;53.50